sensor_id;sensor_type;location;lat;lon;timestamp;temperature;humidity
47540;DHT22;33280;52.152;21.052;2022-12-08T00:00:21;1.00;99.90
47540;DHT22;33280;52.152;21.052;2022-12-08T00:03:09;1.00;99.90
47540;DHT22;33280;52.152;21.052;2022-12-08T00:05:45;1.00;99.90
47540;DHT22;33280;52.152;21.052;2022-12-08T00:09:01;0.90;99.90
47540;DHT22;33280;52.152;21.052;2022-12-08T00:12:25;0.90;99.90
47540;DHT22;33280;52.152;21.052;2022-12-08T00:14:56;0.80;99.90
47540;DHT22;33280;52.152;21.052;2022-12-08T00:17:58;0.90;99.90
47540;DHT22;33280;52.152;21.052;2022-12-08T00:20:41;0.90;99.90
47540;DHT22;33280;52.152;21.052;2022-12-08T00:23:56;0.90;99.90
47540;DHT22;33280;52.152;21.052;2022-12-08T00:27:45;0.80;99.90
47540;DHT22;33280;52.152;21.052;2022-12-08T00:30:56;0.80;99.90
47540;DHT22;33280;52.152;21.052;2022-12-08T00:34:14;0.80;99.90
47540;DHT22;33280;52.152;21.052;2022-12-08T00:44:54;0.70;99.90
47540;DHT22;33280;52.152;21.052;2022-12-08T00:47:22;0.70;99.90
47540;DHT22;33280;52.152;21.052;2022-12-08T00:49:56;0.80;99.90
47540;DHT22;33280;52.152;21.052;2022-12-08T00:52:26;0.80;99.90
47540;DHT22;33280;52.152;21.052;2022-12-08T00:54:56;0.70;99.90
47540;DHT22;33280;52.152;21.052;2022-12-08T00:57:27;0.70;99.90
47540;DHT22;33280;52.152;21.052;2022-12-08T01:00:17;0.60;99.90
47540;DHT22;33280;52.152;21.052;2022-12-08T01:02:50;0.60;99.90
47540;DHT22;33280;52.152;21.052;2022-12-08T01:05:26;0.50;99.90
47540;DHT22;33280;52.152;21.052;2022-12-08T01:08:51;0.50;99.90
47540;DHT22;33280;52.152;21.052;2022-12-08T01:11:38;0.50;99.90
47540;DHT22;33280;52.152;21.052;2022-12-08T01:14:30;0.50;99.90
47540;DHT22;33280;52.152;21.052;2022-12-08T01:17:04;0.50;99.90
47540;DHT22;33280;52.152;21.052;2022-12-08T01:19:41;0.50;99.90
47540;DHT22;33280;52.152;21.052;2022-12-08T01:22:15;0.40;99.90
47540;DHT22;33280;52.152;21.052;2022-12-08T01:24:43;0.40;99.90
47540;DHT22;33280;52.152;21.052;2022-12-08T01:27:10;0.40;99.90
47540;DHT22;33280;52.152;21.052;2022-12-08T01:29:40;0.40;99.90
47540;DHT22;33280;52.152;21.052;2022-12-08T01:32:10;0.30;99.90
47540;DHT22;33280;52.152;21.052;2022-12-08T01:34:50;0.30;99.90
47540;DHT22;33280;52.152;21.052;2022-12-08T01:37:18;0.30;99.90
47540;DHT22;33280;52.152;21.052;2022-12-08T01:39:46;0.30;99.90
47540;DHT22;33280;52.152;21.052;2022-12-08T01:45:03;0.30;99.90
47540;DHT22;33280;52.152;21.052;2022-12-08T01:47:40;0.30;99.90
47540;DHT22;33280;52.152;21.052;2022-12-08T01:50:21;0.30;99.90
47540;DHT22;33280;52.152;21.052;2022-12-08T01:52:58;0.30;99.90
47540;DHT22;33280;52.152;21.052;2022-12-08T01:55:52;0.30;99.90
47540;DHT22;33280;52.152;21.052;2022-12-08T01:58:30;0.40;99.90
47540;DHT22;33280;52.152;21.052;2022-12-08T02:00:58;0.40;99.90
47540;DHT22;33280;52.152;21.052;2022-12-08T02:03:46;0.40;99.90
47540;DHT22;33280;52.152;21.052;2022-12-08T02:06:23;0.40;99.90
47540;DHT22;33280;52.152;21.052;2022-12-08T02:08:51;0.40;99.90
47540;DHT22;33280;52.152;21.052;2022-12-08T02:11:21;0.40;99.90
47540;DHT22;33280;52.152;21.052;2022-12-08T02:13:49;0.30;99.90
47540;DHT22;33280;52.152;21.052;2022-12-08T02:16:44;0.30;99.90
47540;DHT22;33280;52.152;21.052;2022-12-08T02:19:50;0.30;99.90
47540;DHT22;33280;52.152;21.052;2022-12-08T02:22:35;0.20;99.90
47540;DHT22;33280;52.152;21.052;2022-12-08T02:32:07;0.20;99.90
47540;DHT22;33280;52.152;21.052;2022-12-08T02:45:11;0.20;99.90
47540;DHT22;33280;52.152;21.052;2022-12-08T02:47:51;0.10;99.90
47540;DHT22;33280;52.152;21.052;2022-12-08T02:53:54;0.10;99.90
47540;DHT22;33280;52.152;21.052;2022-12-08T02:56:42;0.10;99.90
47540;DHT22;33280;52.152;21.052;2022-12-08T03:08:50;0.10;99.90
47540;DHT22;33280;52.152;21.052;2022-12-08T03:11:41;0.10;99.90
47540;DHT22;33280;52.152;21.052;2022-12-08T03:14:13;0.10;99.90
47540;DHT22;33280;52.152;21.052;2022-12-08T03:16:46;0.10;99.90
47540;DHT22;33280;52.152;21.052;2022-12-08T03:19:36;0.10;99.90
47540;DHT22;33280;52.152;21.052;2022-12-08T03:22:16;0.10;99.90
47540;DHT22;33280;52.152;21.052;2022-12-08T03:24:46;0.00;99.90
47540;DHT22;33280;52.152;21.052;2022-12-08T03:27:16;0.00;99.90
47540;DHT22;33280;52.152;21.052;2022-12-08T03:29:47;0.00;99.90
47540;DHT22;33280;52.152;21.052;2022-12-08T03:34:51;0.00;99.90
47540;DHT22;33280;52.152;21.052;2022-12-08T03:37:19;-0.10;99.90
47540;DHT22;33280;52.152;21.052;2022-12-08T03:39:47;-0.10;99.90
47540;DHT22;33280;52.152;21.052;2022-12-08T03:42:14;0.00;99.90
47540;DHT22;33280;52.152;21.052;2022-12-08T03:44:43;0.00;99.90
47540;DHT22;33280;52.152;21.052;2022-12-08T03:47:10;0.00;99.90
47540;DHT22;33280;52.152;21.052;2022-12-08T03:49:37;0.00;99.90
47540;DHT22;33280;52.152;21.052;2022-12-08T03:52:04;0.00;99.90
47540;DHT22;33280;52.152;21.052;2022-12-08T03:54:31;0.00;99.90
47540;DHT22;33280;52.152;21.052;2022-12-08T03:56:59;0.00;99.90
47540;DHT22;33280;52.152;21.052;2022-12-08T03:59:26;0.00;99.90
47540;DHT22;33280;52.152;21.052;2022-12-08T04:01:53;0.00;99.90
47540;DHT22;33280;52.152;21.052;2022-12-08T04:04:21;-0.10;99.90
47540;DHT22;33280;52.152;21.052;2022-12-08T04:06:48;-0.10;99.90
47540;DHT22;33280;52.152;21.052;2022-12-08T04:09:19;-0.10;99.90
47540;DHT22;33280;52.152;21.052;2022-12-08T04:11:47;-0.10;99.90
47540;DHT22;33280;52.152;21.052;2022-12-08T04:14:36;-0.10;99.90
47540;DHT22;33280;52.152;21.052;2022-12-08T04:17:03;-0.20;99.90
47540;DHT22;33280;52.152;21.052;2022-12-08T04:19:30;-0.10;99.90
47540;DHT22;33280;52.152;21.052;2022-12-08T04:21:58;-0.10;99.90
47540;DHT22;33280;52.152;21.052;2022-12-08T04:24:28;-0.10;99.90
47540;DHT22;33280;52.152;21.052;2022-12-08T04:27:18;-0.10;99.90
47540;DHT22;33280;52.152;21.052;2022-12-08T04:29:48;-0.10;99.90
47540;DHT22;33280;52.152;21.052;2022-12-08T04:32:21;0.00;99.90
47540;DHT22;33280;52.152;21.052;2022-12-08T04:34:48;0.10;99.90
47540;DHT22;33280;52.152;21.052;2022-12-08T04:37:18;0.10;99.90
47540;DHT22;33280;52.152;21.052;2022-12-08T04:39:45;0.20;99.90
47540;DHT22;33280;52.152;21.052;2022-12-08T04:42:12;0.20;99.90
47540;DHT22;33280;52.152;21.052;2022-12-08T04:44:40;0.20;99.90
47540;DHT22;33280;52.152;21.052;2022-12-08T04:47:07;0.30;99.90
47540;DHT22;33280;52.152;21.052;2022-12-08T04:49:45;0.30;99.90
47540;DHT22;33280;52.152;21.052;2022-12-08T04:52:58;0.30;99.90
47540;DHT22;33280;52.152;21.052;2022-12-08T04:55:25;0.40;99.90
47540;DHT22;33280;52.152;21.052;2022-12-08T04:58:00;0.40;99.90
47540;DHT22;33280;52.152;21.052;2022-12-08T05:00:30;0.40;99.90
47540;DHT22;33280;52.152;21.052;2022-12-08T05:02:57;0.40;99.90
47540;DHT22;33280;52.152;21.052;2022-12-08T05:05:25;0.40;99.90
47540;DHT22;33280;52.152;21.052;2022-12-08T05:08:00;0.40;99.90
47540;DHT22;33280;52.152;21.052;2022-12-08T05:10:33;0.30;99.90
47540;DHT22;33280;52.152;21.052;2022-12-08T05:13:06;0.30;99.90
47540;DHT22;33280;52.152;21.052;2022-12-08T05:19:17;0.30;99.90
47540;DHT22;33280;52.152;21.052;2022-12-08T05:22:17;0.30;99.90
47540;DHT22;33280;52.152;21.052;2022-12-08T05:24:53;0.30;99.90
47540;DHT22;33280;52.152;21.052;2022-12-08T05:27:56;0.30;99.90
47540;DHT22;33280;52.152;21.052;2022-12-08T05:30:43;0.30;99.90
47540;DHT22;33280;52.152;21.052;2022-12-08T05:33:18;0.30;99.90
47540;DHT22;33280;52.152;21.052;2022-12-08T05:35:45;0.40;99.90
47540;DHT22;33280;52.152;21.052;2022-12-08T05:38:12;0.30;99.90
47540;DHT22;33280;52.152;21.052;2022-12-08T05:40:44;0.40;99.90
47540;DHT22;33280;52.152;21.052;2022-12-08T05:43:14;0.40;99.90
47540;DHT22;33280;52.152;21.052;2022-12-08T05:45:41;0.30;99.90
47540;DHT22;33280;52.152;21.052;2022-12-08T05:48:08;0.30;99.90
47540;DHT22;33280;52.152;21.052;2022-12-08T05:50:36;0.30;99.90
47540;DHT22;33280;52.152;21.052;2022-12-08T05:53:03;0.30;99.90
47540;DHT22;33280;52.152;21.052;2022-12-08T05:55:31;0.30;99.90
47540;DHT22;33280;52.152;21.052;2022-12-08T05:57:58;0.30;99.90
47540;DHT22;33280;52.152;21.052;2022-12-08T06:00:33;0.30;99.90
47540;DHT22;33280;52.152;21.052;2022-12-08T06:03:00;0.40;99.90
47540;DHT22;33280;52.152;21.052;2022-12-08T06:05:28;0.40;99.90
47540;DHT22;33280;52.152;21.052;2022-12-08T06:07:55;0.40;99.90
47540;DHT22;33280;52.152;21.052;2022-12-08T06:10:25;0.40;99.90
47540;DHT22;33280;52.152;21.052;2022-12-08T06:12:53;0.40;99.90
47540;DHT22;33280;52.152;21.052;2022-12-08T06:15:20;0.40;99.90
47540;DHT22;33280;52.152;21.052;2022-12-08T06:17:47;0.40;99.90
47540;DHT22;33280;52.152;21.052;2022-12-08T06:20:14;0.50;99.90
47540;DHT22;33280;52.152;21.052;2022-12-08T06:22:41;0.50;99.90
47540;DHT22;33280;52.152;21.052;2022-12-08T06:25:09;0.50;99.90
47540;DHT22;33280;52.152;21.052;2022-12-08T06:27:36;0.50;99.90
47540;DHT22;33280;52.152;21.052;2022-12-08T06:30:03;0.50;99.90
47540;DHT22;33280;52.152;21.052;2022-12-08T06:32:31;0.50;99.90
47540;DHT22;33280;52.152;21.052;2022-12-08T06:34:58;0.50;99.90
47540;DHT22;33280;52.152;21.052;2022-12-08T06:37:25;0.60;99.90
47540;DHT22;33280;52.152;21.052;2022-12-08T06:39:55;0.50;99.90
47540;DHT22;33280;52.152;21.052;2022-12-08T06:42:22;0.40;99.90
47540;DHT22;33280;52.152;21.052;2022-12-08T06:45:08;0.40;99.90
47540;DHT22;33280;52.152;21.052;2022-12-08T06:47:35;0.30;99.90
47540;DHT22;33280;52.152;21.052;2022-12-08T06:50:03;0.40;99.90
47540;DHT22;33280;52.152;21.052;2022-12-08T06:52:31;0.40;99.90
47540;DHT22;33280;52.152;21.052;2022-12-08T06:54:58;0.40;99.90
47540;DHT22;33280;52.152;21.052;2022-12-08T06:57:25;0.40;99.90
47540;DHT22;33280;52.152;21.052;2022-12-08T06:59:52;0.20;99.90
47540;DHT22;33280;52.152;21.052;2022-12-08T07:02:23;0.20;99.90
47540;DHT22;33280;52.152;21.052;2022-12-08T07:04:55;0.20;99.90
47540;DHT22;33280;52.152;21.052;2022-12-08T07:07:25;0.10;99.90
47540;DHT22;33280;52.152;21.052;2022-12-08T07:09:52;0.10;99.90
47540;DHT22;33280;52.152;21.052;2022-12-08T07:12:19;0.00;99.90
47540;DHT22;33280;52.152;21.052;2022-12-08T07:14:57;0.00;99.90
47540;DHT22;33280;52.152;21.052;2022-12-08T07:17:29;0.00;99.90
47540;DHT22;33280;52.152;21.052;2022-12-08T07:19:56;0.00;99.90
47540;DHT22;33280;52.152;21.052;2022-12-08T07:22:23;0.00;99.90
47540;DHT22;33280;52.152;21.052;2022-12-08T07:24:50;-0.10;99.90
47540;DHT22;33280;52.152;21.052;2022-12-08T07:27:17;-0.10;99.90
47540;DHT22;33280;52.152;21.052;2022-12-08T07:29:45;-0.10;99.90
47540;DHT22;33280;52.152;21.052;2022-12-08T07:32:11;-0.10;99.90
47540;DHT22;33280;52.152;21.052;2022-12-08T07:34:38;-0.10;99.90
47540;DHT22;33280;52.152;21.052;2022-12-08T07:37:06;-0.10;99.90
47540;DHT22;33280;52.152;21.052;2022-12-08T07:39:33;-0.10;99.90
47540;DHT22;33280;52.152;21.052;2022-12-08T07:42:00;0.00;99.90
47540;DHT22;33280;52.152;21.052;2022-12-08T07:44:27;0.00;99.90
47540;DHT22;33280;52.152;21.052;2022-12-08T07:46:54;0.10;99.90
47540;DHT22;33280;52.152;21.052;2022-12-08T07:49:21;0.40;99.90
47540;DHT22;33280;52.152;21.052;2022-12-08T07:51:48;0.80;99.90
47540;DHT22;33280;52.152;21.052;2022-12-08T07:54:15;0.90;99.90
47540;DHT22;33280;52.152;21.052;2022-12-08T07:56:42;1.20;99.90
47540;DHT22;33280;52.152;21.052;2022-12-08T07:59:12;1.50;99.90
47540;DHT22;33280;52.152;21.052;2022-12-08T08:01:40;1.70;99.90
47540;DHT22;33280;52.152;21.052;2022-12-08T08:04:11;2.00;99.90
47540;DHT22;33280;52.152;21.052;2022-12-08T08:06:38;2.10;99.90
47540;DHT22;33280;52.152;21.052;2022-12-08T08:09:06;2.10;99.90
47540;DHT22;33280;52.152;21.052;2022-12-08T08:11:34;2.20;99.90
47540;DHT22;33280;52.152;21.052;2022-12-08T08:14:02;2.20;99.90
47540;DHT22;33280;52.152;21.052;2022-12-08T08:16:29;2.40;99.90
47540;DHT22;33280;52.152;21.052;2022-12-08T08:19:04;2.40;99.90
47540;DHT22;33280;52.152;21.052;2022-12-08T08:21:31;2.50;99.90
47540;DHT22;33280;52.152;21.052;2022-12-08T08:24:17;2.60;99.90
47540;DHT22;33280;52.152;21.052;2022-12-08T08:26:45;2.80;99.90
47540;DHT22;33280;52.152;21.052;2022-12-08T08:29:12;2.80;99.90
47540;DHT22;33280;52.152;21.052;2022-12-08T08:31:51;2.90;99.90
47540;DHT22;33280;52.152;21.052;2022-12-08T08:34:27;2.90;99.90
47540;DHT22;33280;52.152;21.052;2022-12-08T08:36:57;2.80;99.90
47540;DHT22;33280;52.152;21.052;2022-12-08T08:39:29;2.60;99.90
47540;DHT22;33280;52.152;21.052;2022-12-08T08:42:04;2.40;99.90
47540;DHT22;33280;52.152;21.052;2022-12-08T08:44:32;2.00;99.90
47540;DHT22;33280;52.152;21.052;2022-12-08T08:47:08;2.00;99.90
47540;DHT22;33280;52.152;21.052;2022-12-08T08:49:35;1.90;99.90
47540;DHT22;33280;52.152;21.052;2022-12-08T08:52:03;2.00;99.90
47540;DHT22;33280;52.152;21.052;2022-12-08T08:54:33;2.10;99.90
47540;DHT22;33280;52.152;21.052;2022-12-08T08:57:04;2.10;99.90
47540;DHT22;33280;52.152;21.052;2022-12-08T08:59:31;1.80;99.90
47540;DHT22;33280;52.152;21.052;2022-12-08T09:01:58;1.80;99.90
47540;DHT22;33280;52.152;21.052;2022-12-08T09:04:29;1.80;99.90
47540;DHT22;33280;52.152;21.052;2022-12-08T09:07:07;1.70;99.90
47540;DHT22;33280;52.152;21.052;2022-12-08T09:09:41;1.70;99.90
47540;DHT22;33280;52.152;21.052;2022-12-08T09:12:08;1.50;99.90
47540;DHT22;33280;52.152;21.052;2022-12-08T09:14:35;1.60;99.90
47540;DHT22;33280;52.152;21.052;2022-12-08T09:17:05;1.60;99.90
47540;DHT22;33280;52.152;21.052;2022-12-08T09:19:33;1.70;99.90
47540;DHT22;33280;52.152;21.052;2022-12-08T09:22:00;1.60;99.90
47540;DHT22;33280;52.152;21.052;2022-12-08T09:24:32;1.70;99.90
47540;DHT22;33280;52.152;21.052;2022-12-08T09:27:04;1.70;99.90
47540;DHT22;33280;52.152;21.052;2022-12-08T09:29:45;1.70;99.90
47540;DHT22;33280;52.152;21.052;2022-12-08T09:32:17;1.80;99.90
47540;DHT22;33280;52.152;21.052;2022-12-08T09:35:03;1.80;99.90
47540;DHT22;33280;52.152;21.052;2022-12-08T09:37:37;1.90;99.90
47540;DHT22;33280;52.152;21.052;2022-12-08T09:40:19;1.90;99.90
47540;DHT22;33280;52.152;21.052;2022-12-08T09:42:56;1.80;99.90
47540;DHT22;33280;52.152;21.052;2022-12-08T09:45:34;2.00;99.90
47540;DHT22;33280;52.152;21.052;2022-12-08T09:48:20;2.10;99.90
47540;DHT22;33280;52.152;21.052;2022-12-08T09:50:57;2.00;99.90
47540;DHT22;33280;52.152;21.052;2022-12-08T09:53:48;2.10;99.90
47540;DHT22;33280;52.152;21.052;2022-12-08T09:56:27;2.00;99.90
47540;DHT22;33280;52.152;21.052;2022-12-08T09:59:21;2.00;99.90
47540;DHT22;33280;52.152;21.052;2022-12-08T10:01:56;2.20;99.90
47540;DHT22;33280;52.152;21.052;2022-12-08T10:04:36;2.30;99.90
47540;DHT22;33280;52.152;21.052;2022-12-08T10:07:42;2.30;99.90
47540;DHT22;33280;52.152;21.052;2022-12-08T10:10:38;2.30;99.90
47540;DHT22;33280;52.152;21.052;2022-12-08T10:16:27;2.70;99.90
47540;DHT22;33280;52.152;21.052;2022-12-08T10:19:13;2.80;99.90
47540;DHT22;33280;52.152;21.052;2022-12-08T10:21:44;2.90;99.90
47540;DHT22;33280;52.152;21.052;2022-12-08T10:25:14;2.90;99.90
47540;DHT22;33280;52.152;21.052;2022-12-08T10:27:44;2.80;99.90
47540;DHT22;33280;52.152;21.052;2022-12-08T10:30:14;2.80;99.90
47540;DHT22;33280;52.152;21.052;2022-12-08T10:32:44;2.80;99.90
47540;DHT22;33280;52.152;21.052;2022-12-08T10:35:13;2.90;99.90
47540;DHT22;33280;52.152;21.052;2022-12-08T10:40:49;3.00;99.90
47540;DHT22;33280;52.152;21.052;2022-12-08T10:43:24;3.10;99.90
47540;DHT22;33280;52.152;21.052;2022-12-08T10:45:51;3.00;99.90
47540;DHT22;33280;52.152;21.052;2022-12-08T10:48:21;3.00;99.90
47540;DHT22;33280;52.152;21.052;2022-12-08T10:51:00;3.10;99.90
47540;DHT22;33280;52.152;21.052;2022-12-08T10:53:33;3.30;99.90
47540;DHT22;33280;52.152;21.052;2022-12-08T10:56:17;3.30;99.90
47540;DHT22;33280;52.152;21.052;2022-12-08T10:58:45;3.40;99.90
47540;DHT22;33280;52.152;21.052;2022-12-08T11:01:25;3.40;99.90
47540;DHT22;33280;52.152;21.052;2022-12-08T11:04:09;3.20;99.90
47540;DHT22;33280;52.152;21.052;2022-12-08T11:06:40;3.40;99.90
47540;DHT22;33280;52.152;21.052;2022-12-08T11:11:58;3.30;99.90
47540;DHT22;33280;52.152;21.052;2022-12-08T11:15:18;3.50;99.90
47540;DHT22;33280;52.152;21.052;2022-12-08T11:17:35;3.60;99.90
47540;DHT22;33280;52.152;21.052;2022-12-08T11:22:44;3.40;99.90
47540;DHT22;33280;52.152;21.052;2022-12-08T11:25:29;3.50;99.90
47540;DHT22;33280;52.152;21.052;2022-12-08T11:28:09;3.70;99.90
47540;DHT22;33280;52.152;21.052;2022-12-08T11:30:46;3.90;99.90
47540;DHT22;33280;52.152;21.052;2022-12-08T11:33:31;4.00;99.90
47540;DHT22;33280;52.152;21.052;2022-12-08T11:36:11;4.30;99.90
47540;DHT22;33280;52.152;21.052;2022-12-08T11:38:47;4.20;99.90
47540;DHT22;33280;52.152;21.052;2022-12-08T11:41:57;4.20;99.90
47540;DHT22;33280;52.152;21.052;2022-12-08T11:44:41;4.10;99.90
47540;DHT22;33280;52.152;21.052;2022-12-08T11:47:40;4.00;99.90
47540;DHT22;33280;52.152;21.052;2022-12-08T11:50:24;3.90;99.90
47540;DHT22;33280;52.152;21.052;2022-12-08T11:52:59;3.80;99.90
47540;DHT22;33280;52.152;21.052;2022-12-08T11:58:54;3.60;99.90
47540;DHT22;33280;52.152;21.052;2022-12-08T12:01:45;3.50;99.90
47540;DHT22;33280;52.152;21.052;2022-12-08T12:04:38;3.40;99.90
47540;DHT22;33280;52.152;21.052;2022-12-08T12:19:53;2.90;99.90
47540;DHT22;33280;52.152;21.052;2022-12-08T12:22:24;3.00;99.90
47540;DHT22;33280;52.152;21.052;2022-12-08T12:25:01;3.00;99.90
47540;DHT22;33280;52.152;21.052;2022-12-08T12:27:38;2.70;99.90
47540;DHT22;33280;52.152;21.052;2022-12-08T12:30:12;2.70;99.90
47540;DHT22;33280;52.152;21.052;2022-12-08T12:32:57;2.70;99.90
47540;DHT22;33280;52.152;21.052;2022-12-08T12:35:35;2.80;99.90
47540;DHT22;33280;52.152;21.052;2022-12-08T12:38:07;2.70;99.90
47540;DHT22;33280;52.152;21.052;2022-12-08T12:41:00;2.80;99.90
47540;DHT22;33280;52.152;21.052;2022-12-08T12:43:34;2.80;99.90
47540;DHT22;33280;52.152;21.052;2022-12-08T12:57:23;2.90;99.90
47540;DHT22;33280;52.152;21.052;2022-12-08T13:05:21;3.00;99.90
47540;DHT22;33280;52.152;21.052;2022-12-08T13:08:22;3.10;99.90
47540;DHT22;33280;52.152;21.052;2022-12-08T13:10:59;3.10;99.90
47540;DHT22;33280;52.152;21.052;2022-12-08T13:13:30;3.10;99.90
47540;DHT22;33280;52.152;21.052;2022-12-08T13:16:15;3.00;99.90
47540;DHT22;33280;52.152;21.052;2022-12-08T13:18:51;2.90;99.90
47540;DHT22;33280;52.152;21.052;2022-12-08T13:21:20;3.00;99.90
47540;DHT22;33280;52.152;21.052;2022-12-08T13:24:27;3.00;99.90
47540;DHT22;33280;52.152;21.052;2022-12-08T13:29:37;2.90;99.90
47540;DHT22;33280;52.152;21.052;2022-12-08T13:34:43;2.90;99.90
47540;DHT22;33280;52.152;21.052;2022-12-08T13:39:57;3.00;99.90
47540;DHT22;33280;52.152;21.052;2022-12-08T13:42:58;3.00;99.90
47540;DHT22;33280;52.152;21.052;2022-12-08T13:45:32;3.00;99.90
47540;DHT22;33280;52.152;21.052;2022-12-08T13:48:48;2.80;99.90
47540;DHT22;33280;52.152;21.052;2022-12-08T13:51:44;2.90;99.90
47540;DHT22;33280;52.152;21.052;2022-12-08T13:54:35;2.90;99.90
47540;DHT22;33280;52.152;21.052;2022-12-08T13:57:38;2.80;99.90
47540;DHT22;33280;52.152;21.052;2022-12-08T14:00:17;2.80;99.90
47540;DHT22;33280;52.152;21.052;2022-12-08T14:02:47;2.70;99.90
47540;DHT22;33280;52.152;21.052;2022-12-08T14:05:20;2.80;99.90
47540;DHT22;33280;52.152;21.052;2022-12-08T14:08:19;2.80;99.90
47540;DHT22;33280;52.152;21.052;2022-12-08T14:11:34;2.80;99.90
47540;DHT22;33280;52.152;21.052;2022-12-08T14:17:26;2.80;99.90
47540;DHT22;33280;52.152;21.052;2022-12-08T14:20:31;2.70;99.90
47540;DHT22;33280;52.152;21.052;2022-12-08T14:23:18;2.60;99.90
47540;DHT22;33280;52.152;21.052;2022-12-08T14:25:47;2.70;99.90
47540;DHT22;33280;52.152;21.052;2022-12-08T14:28:17;2.70;99.90
47540;DHT22;33280;52.152;21.052;2022-12-08T14:30:47;2.60;99.90
47540;DHT22;33280;52.152;21.052;2022-12-08T14:33:20;2.60;99.90
47540;DHT22;33280;52.152;21.052;2022-12-08T14:35:52;2.60;99.90
47540;DHT22;33280;52.152;21.052;2022-12-08T14:38:24;2.50;99.90
47540;DHT22;33280;52.152;21.052;2022-12-08T14:41:13;2.50;99.90
47540;DHT22;33280;52.152;21.052;2022-12-08T14:43:40;2.50;99.90
47540;DHT22;33280;52.152;21.052;2022-12-08T14:46:20;2.50;99.90
47540;DHT22;33280;52.152;21.052;2022-12-08T14:48:49;2.50;99.90
47540;DHT22;33280;52.152;21.052;2022-12-08T14:56:52;2.50;99.90
47540;DHT22;33280;52.152;21.052;2022-12-08T14:59:32;2.50;99.90
47540;DHT22;33280;52.152;21.052;2022-12-08T15:04:43;2.50;99.90
47540;DHT22;33280;52.152;21.052;2022-12-08T15:07:12;2.50;99.90
47540;DHT22;33280;52.152;21.052;2022-12-08T15:09:47;2.40;99.90
47540;DHT22;33280;52.152;21.052;2022-12-08T15:12:20;2.40;99.90
47540;DHT22;33280;52.152;21.052;2022-12-08T15:14:58;2.40;99.90
47540;DHT22;33280;52.152;21.052;2022-12-08T15:20:25;2.40;99.90
47540;DHT22;33280;52.152;21.052;2022-12-08T15:23:01;2.30;99.90
47540;DHT22;33280;52.152;21.052;2022-12-08T15:25:28;2.40;99.90
47540;DHT22;33280;52.152;21.052;2022-12-08T15:27:56;2.40;99.90
47540;DHT22;33280;52.152;21.052;2022-12-08T15:30:24;2.40;99.90
47540;DHT22;33280;52.152;21.052;2022-12-08T15:32:54;2.40;99.90
47540;DHT22;33280;52.152;21.052;2022-12-08T15:35:25;2.40;99.90
47540;DHT22;33280;52.152;21.052;2022-12-08T15:37:53;2.50;99.90
47540;DHT22;33280;52.152;21.052;2022-12-08T15:40:20;2.40;99.90
47540;DHT22;33280;52.152;21.052;2022-12-08T15:42:49;2.40;99.90
47540;DHT22;33280;52.152;21.052;2022-12-08T15:45:16;2.40;99.90
47540;DHT22;33280;52.152;21.052;2022-12-08T15:47:44;2.40;99.90
47540;DHT22;33280;52.152;21.052;2022-12-08T15:50:17;2.40;99.90
47540;DHT22;33280;52.152;21.052;2022-12-08T15:52:45;2.40;99.90
47540;DHT22;33280;52.152;21.052;2022-12-08T15:55:17;2.30;99.90
47540;DHT22;33280;52.152;21.052;2022-12-08T15:57:52;2.30;99.90
47540;DHT22;33280;52.152;21.052;2022-12-08T16:00:40;2.30;99.90
47540;DHT22;33280;52.152;21.052;2022-12-08T16:03:28;2.30;99.90
47540;DHT22;33280;52.152;21.052;2022-12-08T16:06:18;2.30;99.90
47540;DHT22;33280;52.152;21.052;2022-12-08T16:09:07;2.30;99.90
47540;DHT22;33280;52.152;21.052;2022-12-08T16:11:46;2.20;99.90
47540;DHT22;33280;52.152;21.052;2022-12-08T16:14:40;2.20;99.90
47540;DHT22;33280;52.152;21.052;2022-12-08T16:17:35;2.10;99.90
47540;DHT22;33280;52.152;21.052;2022-12-08T16:20:05;2.10;99.90
47540;DHT22;33280;52.152;21.052;2022-12-08T16:22:36;2.20;99.90
47540;DHT22;33280;52.152;21.052;2022-12-08T16:25:24;2.30;99.90
47540;DHT22;33280;52.152;21.052;2022-12-08T16:28:15;2.20;99.90
47540;DHT22;33280;52.152;21.052;2022-12-08T16:31:05;2.20;99.90
47540;DHT22;33280;52.152;21.052;2022-12-08T16:33:45;2.30;99.90
47540;DHT22;33280;52.152;21.052;2022-12-08T16:36:12;2.30;99.90
47540;DHT22;33280;52.152;21.052;2022-12-08T16:38:38;2.30;99.90
47540;DHT22;33280;52.152;21.052;2022-12-08T16:41:05;2.30;99.90
47540;DHT22;33280;52.152;21.052;2022-12-08T16:43:51;2.30;99.90
47540;DHT22;33280;52.152;21.052;2022-12-08T16:46:19;2.30;99.90
47540;DHT22;33280;52.152;21.052;2022-12-08T16:48:49;2.30;99.90
47540;DHT22;33280;52.152;21.052;2022-12-08T16:51:17;2.40;99.90
47540;DHT22;33280;52.152;21.052;2022-12-08T16:53:52;2.30;99.90
47540;DHT22;33280;52.152;21.052;2022-12-08T16:56:20;2.40;99.90
47540;DHT22;33280;52.152;21.052;2022-12-08T16:58:54;2.30;99.90
47540;DHT22;33280;52.152;21.052;2022-12-08T17:01:21;2.30;99.90
47540;DHT22;33280;52.152;21.052;2022-12-08T17:03:49;2.30;99.90
47540;DHT22;33280;52.152;21.052;2022-12-08T17:06:36;2.30;99.90
47540;DHT22;33280;52.152;21.052;2022-12-08T17:09:03;2.40;99.90
47540;DHT22;33280;52.152;21.052;2022-12-08T17:11:31;2.40;99.90
47540;DHT22;33280;52.152;21.052;2022-12-08T17:14:04;2.40;99.90
47540;DHT22;33280;52.152;21.052;2022-12-08T17:16:32;2.40;99.90
47540;DHT22;33280;52.152;21.052;2022-12-08T17:18:59;2.40;99.90
47540;DHT22;33280;52.152;21.052;2022-12-08T17:21:26;2.40;99.90
47540;DHT22;33280;52.152;21.052;2022-12-08T17:23:53;2.50;99.90
47540;DHT22;33280;52.152;21.052;2022-12-08T17:26:21;2.50;99.90
47540;DHT22;33280;52.152;21.052;2022-12-08T17:28:51;2.50;99.90
47540;DHT22;33280;52.152;21.052;2022-12-08T17:31:29;2.50;99.90
47540;DHT22;33280;52.152;21.052;2022-12-08T17:34:02;2.60;99.90
47540;DHT22;33280;52.152;21.052;2022-12-08T17:36:29;2.60;99.90
47540;DHT22;33280;52.152;21.052;2022-12-08T17:38:58;2.70;99.90
47540;DHT22;33280;52.152;21.052;2022-12-08T17:41:37;2.70;99.90
47540;DHT22;33280;52.152;21.052;2022-12-08T17:44:16;2.70;99.90
47540;DHT22;33280;52.152;21.052;2022-12-08T17:46:49;2.70;99.90
47540;DHT22;33280;52.152;21.052;2022-12-08T17:49:21;2.70;99.90
47540;DHT22;33280;52.152;21.052;2022-12-08T17:51:58;2.70;99.90
47540;DHT22;33280;52.152;21.052;2022-12-08T17:54:29;2.70;99.90
47540;DHT22;33280;52.152;21.052;2022-12-08T17:56:57;2.70;99.90
47540;DHT22;33280;52.152;21.052;2022-12-08T17:59:25;2.60;99.90
47540;DHT22;33280;52.152;21.052;2022-12-08T18:01:55;2.70;99.90
47540;DHT22;33280;52.152;21.052;2022-12-08T18:04:23;2.60;99.90
47540;DHT22;33280;52.152;21.052;2022-12-08T18:06:54;2.60;99.90
47540;DHT22;33280;52.152;21.052;2022-12-08T18:09:28;2.60;99.90
47540;DHT22;33280;52.152;21.052;2022-12-08T18:11:56;2.50;99.90
47540;DHT22;33280;52.152;21.052;2022-12-08T18:14:26;2.50;99.90
47540;DHT22;33280;52.152;21.052;2022-12-08T18:16:53;2.40;99.90